ICE506 BIKF-EHAM
Flight info
| Callsign | ICE506 |
|---|---|
| Flight time | 2h 39m |
| Altitude | 37000 |
| Route | OSKUM3C OSKUM DCT RATSU/N0444F370 DCT BARKU DCT BONBY DCT SUSIS DCT ROKAN DCT TOPPA |
| Aircraft | B38M/M-SDE1FGHILORVWXY/HB1 |
Departure
| Time | 2026-04-28 22:43 |
|---|---|
| Airport | Keflavik International Airport (BIKF) |
Arrival
| Time | 2026-04-29 01:23 |
|---|---|
| Airport | Amsterdam Airport Schiphol (EHAM) |
| Time | Latitude | Longitude | Altitude | Speed | Heading |
|---|---|---|---|---|---|
| 2026-04-28 22:06 | 63.99272 | -22.62573 | 135 ft | 0 kts | 50° |
| 2026-04-28 22:35 | 63.99270 | -22.62579 | 144 ft | 3 kts | 51° |
| 2026-04-28 22:35 | 63.99256 | -22.62628 | 144 ft | 4 kts | 69° |
| 2026-04-28 22:35 | 63.99253 | -22.62684 | 144 ft | 4 kts | 108° |
| 2026-04-28 22:36 | 63.99264 | -22.62717 | 144 ft | 1 kts | 151° |
| 2026-04-28 22:36 | 63.99267 | -22.62722 | 144 ft | 0 kts | 151° |
| 2026-04-28 22:39 | 63.99263 | -22.62717 | 144 ft | 2 kts | 152° |
| 2026-04-28 22:39 | 63.99239 | -22.62687 | 144 ft | 5 kts | 152° |
| 2026-04-28 22:39 | 63.99205 | -22.62664 | 144 ft | 5 kts | 174° |
| 2026-04-28 22:40 | 63.99179 | -22.62600 | 144 ft | 8 kts | 106° |
| 2026-04-28 22:40 | 63.99171 | -22.62368 | 144 ft | 24 kts | 90° |
| 2026-04-28 22:40 | 63.99172 | -22.61847 | 146 ft | 37 kts | 89° |
| 2026-04-28 22:40 | 63.99173 | -22.61258 | 159 ft | 20 kts | 89° |
| 2026-04-28 22:41 | 63.99174 | -22.60924 | 165 ft | 21 kts | 89° |
| 2026-04-28 22:41 | 63.99175 | -22.60752 | 171 ft | 2 kts | 89° |
| 2026-04-28 22:41 | 63.99175 | -22.60690 | 173 ft | 5 kts | 89° |
| 2026-04-28 22:41 | 63.99169 | -22.60584 | 177 ft | 9 kts | 122° |
| 2026-04-28 22:42 | 63.99123 | -22.60535 | 179 ft | 0 kts | 180° |
| 2026-04-28 22:42 | 63.99118 | -22.60535 | 179 ft | 1 kts | 180° |
| 2026-04-28 22:42 | 63.99107 | -22.60535 | 179 ft | 2 kts | 180° |
| 2026-04-28 22:42 | 63.99037 | -22.60536 | 178 ft | 33 kts | 181° |
| 2026-04-28 22:43 | 63.98746 | -22.60541 | 176 ft | 86 kts | 179° |
| 2026-04-28 22:43 | 63.97914 | -22.60554 | 180 ft | 149 kts | 184° |
| 2026-04-28 22:43 | 63.96772 | -22.60561 | 600 ft | 178 kts | 182° |
| 2026-04-28 22:43 | 63.95494 | -22.60477 | 1512 ft | 189 kts | 179° |
| 2026-04-28 22:44 | 63.94169 | -22.59515 | 2353 ft | 216 kts | 157° |
| 2026-04-28 22:44 | 63.92890 | -22.57130 | 2956 ft | 255 kts | 140° |
| 2026-04-28 22:44 | 63.91733 | -22.53828 | 3738 ft | 279 kts | 132° |
| 2026-04-28 22:44 | 63.90614 | -22.50085 | 4661 ft | 289 kts | 130° |
| 2026-04-28 22:45 | 63.89521 | -22.46278 | 5457 ft | 294 kts | 130° |
| 2026-04-28 22:45 | 63.88463 | -22.42362 | 6414 ft | 287 kts | 130° |
| 2026-04-28 22:45 | 63.87479 | -22.38407 | 6996 ft | 295 kts | 127° |
| 2026-04-28 22:45 | 63.86513 | -22.34112 | 6817 ft | 315 kts | 116° |
| 2026-04-28 22:46 | 63.86195 | -22.29139 | 6748 ft | 327 kts | 92° |
| 2026-04-28 22:46 | 63.86544 | -22.23994 | 6863 ft | 328 kts | 90° |
| 2026-04-28 22:46 | 63.86679 | -22.18815 | 6728 ft | 325 kts | 102° |
| 2026-04-28 22:46 | 63.86117 | -22.14030 | 6506 ft | 308 kts | 117° |
| 2026-04-28 22:47 | 63.85572 | -22.09629 | 7050 ft | 274 kts | 110° |
| 2026-04-28 22:47 | 63.85202 | -22.05296 | 6844 ft | 286 kts | 109° |
| 2026-04-28 22:47 | 63.84795 | -22.00846 | 6587 ft | 283 kts | 110° |
| 2026-04-28 22:47 | 63.84372 | -21.96496 | 6801 ft | 285 kts | 111° |
| 2026-04-28 22:48 | 63.83930 | -21.92109 | 7058 ft | 288 kts | 111° |
| 2026-04-28 22:48 | 63.83478 | -21.87699 | 8018 ft | 287 kts | 112° |
| 2026-04-28 22:48 | 63.83012 | -21.83245 | 8950 ft | 293 kts | 112° |
| 2026-04-28 22:48 | 63.82537 | -21.78705 | 9759 ft | 304 kts | 111° |
| 2026-04-28 22:49 | 63.82243 | -21.73925 | 9852 ft | 306 kts | 105° |
| 2026-04-28 22:49 | 63.81990 | -21.69123 | 9947 ft | 307 kts | 106° |
| 2026-04-28 22:49 | 63.81722 | -21.64318 | 9936 ft | 307 kts | 107° |
| 2026-04-28 22:49 | 63.81432 | -21.59373 | 10232 ft | 325 kts | 107° |
| 2026-04-28 22:50 | 63.81121 | -21.54181 | 10688 ft | 344 kts | 107° |
| 2026-04-28 22:50 | 63.80789 | -21.48681 | 11206 ft | 359 kts | 106° |
| 2026-04-28 22:50 | 63.80455 | -21.42976 | 11793 ft | 370 kts | 106° |
| 2026-04-28 22:50 | 63.80115 | -21.37173 | 12568 ft | 375 kts | 107° |
| 2026-04-28 22:51 | 63.79766 | -21.31301 | 13310 ft | 380 kts | 107° |
| 2026-04-28 22:51 | 63.79408 | -21.25321 | 14048 ft | 385 kts | 108° |
| 2026-04-28 22:51 | 63.79046 | -21.19298 | 14717 ft | 389 kts | 108° |
| 2026-04-28 22:51 | 63.78675 | -21.13181 | 15382 ft | 394 kts | 108° |
| 2026-04-28 22:52 | 63.78298 | -21.07021 | 16031 ft | 398 kts | 109° |
| 2026-04-28 22:52 | 63.77878 | -21.00847 | 16644 ft | 396 kts | 115° |
| 2026-04-28 22:52 | 63.77147 | -20.94843 | 17161 ft | 397 kts | 117° |
| 2026-04-28 22:52 | 63.76421 | -20.88785 | 17793 ft | 402 kts | 116° |
| 2026-04-28 22:53 | 63.75702 | -20.82656 | 18402 ft | 406 kts | 116° |
| 2026-04-28 22:53 | 63.74983 | -20.76466 | 18961 ft | 408 kts | 116° |
| 2026-04-28 22:53 | 63.74262 | -20.70251 | 19562 ft | 410 kts | 117° |
| 2026-04-28 22:53 | 63.73538 | -20.64011 | 20151 ft | 412 kts | 117° |
| 2026-04-28 22:54 | 63.72809 | -20.57754 | 20713 ft | 414 kts | 117° |
| 2026-04-28 22:54 | 63.72073 | -20.51458 | 21251 ft | 416 kts | 118° |
| 2026-04-28 22:54 | 63.71317 | -20.45156 | 21790 ft | 413 kts | 122° |
| 2026-04-28 22:54 | 63.70211 | -20.39296 | 22293 ft | 404 kts | 129° |
| 2026-04-28 22:55 | 63.69043 | -20.33542 | 22792 ft | 407 kts | 128° |
| 2026-04-28 22:55 | 63.67863 | -20.27739 | 23377 ft | 408 kts | 129° |
| 2026-04-28 22:55 | 63.66676 | -20.21921 | 23846 ft | 410 kts | 129° |
| 2026-04-28 22:55 | 63.65488 | -20.16114 | 24224 ft | 413 kts | 129° |
| 2026-04-28 22:56 | 63.64264 | -20.10152 | 24612 ft | 417 kts | 129° |
| 2026-04-28 22:56 | 63.63042 | -20.04213 | 24995 ft | 420 kts | 129° |
| 2026-04-28 22:56 | 63.61808 | -19.98239 | 25363 ft | 423 kts | 129° |
| 2026-04-28 22:56 | 63.60562 | -19.92220 | 25739 ft | 426 kts | 129° |
| 2026-04-28 22:57 | 63.59308 | -19.86177 | 26033 ft | 429 kts | 129° |
| 2026-04-28 22:57 | 63.58039 | -19.80088 | 26449 ft | 431 kts | 129° |
| 2026-04-28 22:57 | 63.56761 | -19.73971 | 26807 ft | 435 kts | 129° |
| 2026-04-28 22:57 | 63.55467 | -19.67793 | 27128 ft | 438 kts | 129° |
| 2026-04-28 22:58 | 63.54168 | -19.61610 | 27548 ft | 439 kts | 129° |
| 2026-04-28 22:58 | 63.52861 | -19.55411 | 27784 ft | 444 kts | 129° |
| 2026-04-28 22:58 | 63.51532 | -19.49125 | 28120 ft | 446 kts | 129° |
| 2026-04-28 22:58 | 63.50198 | -19.42828 | 28437 ft | 449 kts | 129° |
| 2026-04-28 22:59 | 63.48854 | -19.36507 | 28752 ft | 452 kts | 130° |
| 2026-04-28 22:59 | 63.47509 | -19.30199 | 29086 ft | 455 kts | 130° |
| 2026-04-28 22:59 | 63.46140 | -19.23803 | 29379 ft | 458 kts | 130° |
| 2026-04-28 22:59 | 63.44758 | -19.17362 | 29697 ft | 461 kts | 130° |
| 2026-04-28 23:00 | 63.43366 | -19.10895 | 29995 ft | 463 kts | 130° |
| 2026-04-28 23:00 | 63.41962 | -19.04391 | 30239 ft | 466 kts | 130° |
| 2026-04-28 23:00 | 63.40551 | -18.97873 | 30527 ft | 468 kts | 130° |
| 2026-04-28 23:00 | 63.39104 | -18.91216 | 30773 ft | 470 kts | 130° |
| 2026-04-28 23:01 | 63.37673 | -18.84649 | 31079 ft | 471 kts | 130° |
| 2026-04-28 23:01 | 63.36246 | -18.78117 | 31432 ft | 470 kts | 130° |
| 2026-04-28 23:01 | 63.34810 | -18.71567 | 31775 ft | 470 kts | 130° |
| 2026-04-28 23:01 | 63.33373 | -18.65036 | 32116 ft | 470 kts | 130° |
| 2026-04-28 23:02 | 63.31934 | -18.58516 | 32442 ft | 469 kts | 130° |
| 2026-04-28 23:02 | 63.30491 | -18.51998 | 32668 ft | 470 kts | 130° |
| 2026-04-28 23:02 | 63.29039 | -18.45454 | 32869 ft | 473 kts | 130° |
| 2026-04-28 23:02 | 63.27584 | -18.38915 | 33186 ft | 473 kts | 131° |
| 2026-04-28 23:03 | 63.26124 | -18.32382 | 33500 ft | 473 kts | 131° |
| 2026-04-28 23:03 | 63.24661 | -18.25848 | 33810 ft | 472 kts | 131° |
| 2026-04-28 23:03 | 63.23194 | -18.19321 | 34102 ft | 472 kts | 131° |
| 2026-04-28 23:03 | 63.21724 | -18.12795 | 34368 ft | 472 kts | 130° |
| 2026-04-28 23:04 | 63.20251 | -18.06282 | 34571 ft | 472 kts | 131° |
| 2026-04-28 23:04 | 63.17266 | -17.93141 | 34931 ft | 476 kts | 130° |
| 2026-04-28 23:04 | 63.15776 | -17.86610 | 35202 ft | 475 kts | 130° |
| 2026-04-28 23:05 | 63.14287 | -17.80102 | 35510 ft | 474 kts | 130° |
| 2026-04-28 23:05 | 63.12796 | -17.73607 | 35806 ft | 473 kts | 130° |
| 2026-04-28 23:05 | 63.11307 | -17.67142 | 36094 ft | 471 kts | 130° |
| 2026-04-28 23:05 | 63.09821 | -17.60705 | 36369 ft | 470 kts | 129° |
| 2026-04-28 23:06 | 63.08336 | -17.54295 | 36550 ft | 470 kts | 129° |
| 2026-04-28 23:06 | 63.06834 | -17.47836 | 36602 ft | 474 kts | 129° |
| 2026-04-28 23:06 | 63.05329 | -17.41375 | 36821 ft | 474 kts | 129° |
| 2026-04-28 23:06 | 63.03822 | -17.34925 | 37021 ft | 474 kts | 129° |
| 2026-04-28 23:07 | 63.00795 | -17.22036 | 37042 ft | 472 kts | 129° |
| 2026-04-28 23:07 | 62.97775 | -17.09245 | 37066 ft | 472 kts | 128° |
| 2026-04-28 23:08 | 62.94735 | -16.96448 | 37052 ft | 472 kts | 128° |
| 2026-04-28 23:08 | 62.91685 | -16.83685 | 37102 ft | 472 kts | 129° |
| 2026-04-28 23:09 | 62.88629 | -16.70973 | 37054 ft | 471 kts | 129° |
| 2026-04-28 23:09 | 62.85563 | -16.58288 | 37018 ft | 471 kts | 128° |
| 2026-04-28 23:10 | 62.82478 | -16.45603 | 37082 ft | 473 kts | 128° |
| 2026-04-28 23:10 | 62.79377 | -16.32925 | 37054 ft | 472 kts | 128° |
| 2026-04-28 23:11 | 62.76269 | -16.20286 | 37116 ft | 472 kts | 128° |
| 2026-04-28 23:11 | 62.73173 | -16.07774 | 37066 ft | 471 kts | 128° |
| 2026-04-28 23:12 | 62.70028 | -15.95136 | 37091 ft | 472 kts | 128° |
| 2026-04-28 23:12 | 62.66894 | -15.82610 | 37087 ft | 471 kts | 129° |
| 2026-04-28 23:13 | 62.63746 | -15.70102 | 37109 ft | 471 kts | 129° |
| 2026-04-28 23:13 | 62.60591 | -15.57640 | 37076 ft | 470 kts | 129° |
| 2026-04-28 23:14 | 62.57427 | -15.45206 | 37042 ft | 471 kts | 129° |
| 2026-04-28 23:14 | 62.54261 | -15.32837 | 37106 ft | 469 kts | 129° |
| 2026-04-28 23:15 | 62.51082 | -15.20488 | 37111 ft | 469 kts | 129° |
| 2026-04-28 23:15 | 62.47902 | -15.08199 | 37115 ft | 468 kts | 129° |
| 2026-04-28 23:16 | 62.44708 | -14.95927 | 37123 ft | 468 kts | 129° |
| 2026-04-28 23:16 | 62.41506 | -14.83692 | 37123 ft | 468 kts | 129° |
| 2026-04-28 23:17 | 62.38300 | -14.71502 | 37113 ft | 466 kts | 129° |
| 2026-04-28 23:17 | 62.35071 | -14.59300 | 37109 ft | 465 kts | 129° |
| 2026-04-28 23:18 | 62.31866 | -14.47251 | 37137 ft | 463 kts | 129° |
| 2026-04-28 23:18 | 62.28656 | -14.35249 | 37146 ft | 463 kts | 129° |
| 2026-04-28 23:19 | 62.25440 | -14.23287 | 37156 ft | 463 kts | 129° |
| 2026-04-28 23:19 | 62.22212 | -14.11344 | 37150 ft | 463 kts | 129° |
| 2026-04-28 23:20 | 62.19519 | -14.01432 | 37156 ft | 463 kts | 129° |
| 2026-04-28 23:20 | 62.16274 | -13.89543 | 37169 ft | 463 kts | 130° |
| 2026-04-28 23:21 | 62.13017 | -13.77669 | 37131 ft | 464 kts | 129° |
| 2026-04-28 23:21 | 62.09742 | -13.65800 | 37173 ft | 463 kts | 129° |
| 2026-04-28 23:22 | 62.06468 | -13.53991 | 37184 ft | 463 kts | 129° |
| 2026-04-28 23:22 | 62.03182 | -13.42203 | 37184 ft | 463 kts | 129° |
| 2026-04-28 23:23 | 61.99887 | -13.30442 | 37199 ft | 462 kts | 129° |
| 2026-04-28 23:23 | 61.96582 | -13.18708 | 37196 ft | 462 kts | 129° |
| 2026-04-28 23:24 | 61.93270 | -13.07007 | 37203 ft | 462 kts | 130° |
| 2026-04-28 23:24 | 61.89948 | -12.95334 | 37154 ft | 461 kts | 129° |
| 2026-04-28 23:25 | 61.86600 | -12.83630 | 37223 ft | 462 kts | 129° |
| 2026-04-28 23:25 | 61.83266 | -12.72034 | 37219 ft | 461 kts | 129° |
| 2026-04-28 23:26 | 61.79919 | -12.60454 | 37236 ft | 461 kts | 129° |
| 2026-04-28 23:26 | 61.76570 | -12.48921 | 37236 ft | 461 kts | 129° |
| 2026-04-28 23:27 | 61.73210 | -12.37411 | 37233 ft | 461 kts | 129° |
| 2026-04-28 23:27 | 61.69841 | -12.25928 | 37246 ft | 460 kts | 129° |
| 2026-04-28 23:28 | 61.66463 | -12.14474 | 37236 ft | 460 kts | 129° |
| 2026-04-28 23:28 | 61.63083 | -12.03070 | 37268 ft | 459 kts | 128° |
| 2026-04-28 23:29 | 61.59693 | -11.91687 | 37258 ft | 459 kts | 128° |
| 2026-04-28 23:29 | 61.56299 | -11.80349 | 37256 ft | 459 kts | 128° |
| 2026-04-28 23:30 | 61.52892 | -11.69023 | 37264 ft | 459 kts | 129° |
| 2026-04-28 23:30 | 61.49490 | -11.57769 | 37286 ft | 459 kts | 129° |
| 2026-04-28 23:31 | 61.46060 | -11.46479 | 37280 ft | 458 kts | 129° |
| 2026-04-28 23:31 | 61.42634 | -11.35252 | 37282 ft | 458 kts | 128° |
| 2026-04-28 23:32 | 61.39192 | -11.24035 | 37279 ft | 459 kts | 128° |
| 2026-04-28 23:32 | 61.35743 | -11.12847 | 37292 ft | 459 kts | 128° |
| 2026-04-28 23:33 | 61.32285 | -11.01686 | 37295 ft | 458 kts | 128° |
| 2026-04-28 23:33 | 61.28823 | -10.90554 | 37295 ft | 458 kts | 128° |
| 2026-04-28 23:34 | 61.25354 | -10.79446 | 37302 ft | 458 kts | 128° |
| 2026-04-28 23:34 | 61.21876 | -10.68361 | 37304 ft | 458 kts | 128° |
| 2026-04-28 23:35 | 61.18389 | -10.57298 | 37310 ft | 458 kts | 128° |
| 2026-04-28 23:35 | 61.14896 | -10.46267 | 37322 ft | 458 kts | 128° |
| 2026-04-28 23:36 | 61.11385 | -10.35226 | 37325 ft | 459 kts | 128° |
| 2026-04-28 23:36 | 61.07871 | -10.24229 | 37324 ft | 459 kts | 128° |
| 2026-04-28 23:37 | 61.04343 | -10.13236 | 37332 ft | 459 kts | 128° |
| 2026-04-28 23:37 | 61.00781 | -10.02370 | 37322 ft | 455 kts | 135° |
| 2026-04-28 23:38 | 60.98508 | -9.97951 | 37323 ft | 441 kts | 149° |
| 2026-04-28 23:38 | 60.96043 | -9.94189 | 37307 ft | 445 kts | 147° |
| 2026-04-28 23:38 | 60.91081 | -9.86547 | 37365 ft | 447 kts | 148° |
| 2026-04-28 23:39 | 60.86070 | -9.78992 | 37349 ft | 446 kts | 148° |
| 2026-04-28 23:39 | 60.81056 | -9.71486 | 37354 ft | 446 kts | 148° |
| 2026-04-28 23:40 | 60.76048 | -9.64019 | 37355 ft | 446 kts | 148° |
| 2026-04-28 23:40 | 60.71032 | -9.56570 | 37353 ft | 446 kts | 148° |
| 2026-04-28 23:41 | 60.65990 | -9.49112 | 37370 ft | 449 kts | 147° |
| 2026-04-28 23:41 | 60.60941 | -9.41638 | 37375 ft | 450 kts | 144° |
| 2026-04-28 23:42 | 60.56488 | -9.32587 | 37368 ft | 454 kts | 137° |
| 2026-04-28 23:42 | 60.52082 | -9.23417 | 37386 ft | 453 kts | 137° |
| 2026-04-28 23:43 | 60.47651 | -9.14204 | 37387 ft | 453 kts | 137° |
| 2026-04-28 23:43 | 60.43271 | -9.05132 | 37377 ft | 453 kts | 137° |
| 2026-04-28 23:44 | 60.38852 | -8.96017 | 37397 ft | 454 kts | 137° |
| 2026-04-28 23:44 | 60.34400 | -8.86871 | 37400 ft | 453 kts | 137° |
| 2026-04-28 23:45 | 60.29973 | -8.77816 | 37407 ft | 453 kts | 137° |
| 2026-04-28 23:45 | 60.25535 | -8.68773 | 37396 ft | 454 kts | 137° |
| 2026-04-28 23:46 | 60.21069 | -8.59713 | 37412 ft | 456 kts | 137° |
| 2026-04-28 23:46 | 60.16601 | -8.50684 | 37403 ft | 456 kts | 137° |
| 2026-04-28 23:47 | 60.12121 | -8.41670 | 37408 ft | 456 kts | 137° |
| 2026-04-28 23:47 | 60.07633 | -8.32675 | 37416 ft | 456 kts | 137° |
| 2026-04-28 23:48 | 60.03145 | -8.23717 | 37434 ft | 456 kts | 137° |
| 2026-04-28 23:48 | 59.98646 | -8.14773 | 37439 ft | 456 kts | 137° |
| 2026-04-28 23:49 | 59.94142 | -8.05856 | 37437 ft | 456 kts | 137° |
| 2026-04-28 23:49 | 59.89633 | -7.96964 | 37436 ft | 456 kts | 137° |
| 2026-04-28 23:50 | 59.85113 | -7.88088 | 37428 ft | 457 kts | 137° |
| 2026-04-28 23:50 | 59.80564 | -7.79189 | 37444 ft | 458 kts | 137° |
| 2026-04-28 23:51 | 59.75989 | -7.70278 | 37440 ft | 458 kts | 137° |
| 2026-04-28 23:51 | 59.71429 | -7.61431 | 37449 ft | 458 kts | 137° |
| 2026-04-28 23:52 | 59.66848 | -7.52577 | 37438 ft | 458 kts | 138° |
| 2026-04-28 23:52 | 59.62253 | -7.43734 | 37447 ft | 458 kts | 138° |
| 2026-04-28 23:53 | 59.58423 | -7.36390 | 37454 ft | 458 kts | 138° |
| 2026-04-28 23:53 | 59.53852 | -7.27657 | 37461 ft | 458 kts | 138° |
| 2026-04-28 23:54 | 59.49268 | -7.18936 | 37457 ft | 458 kts | 138° |
| 2026-04-28 23:54 | 59.44684 | -7.10247 | 37456 ft | 458 kts | 138° |
| 2026-04-28 23:55 | 59.40096 | -7.01586 | 37445 ft | 458 kts | 139° |
| 2026-04-28 23:55 | 59.35440 | -6.92831 | 37464 ft | 458 kts | 139° |
| 2026-04-28 23:56 | 59.30804 | -6.84148 | 37468 ft | 458 kts | 139° |
| 2026-04-28 23:56 | 59.26171 | -6.75504 | 37468 ft | 458 kts | 139° |
| 2026-04-28 23:57 | 59.21528 | -6.66878 | 37468 ft | 458 kts | 139° |
| 2026-04-28 23:57 | 59.16917 | -6.58344 | 37467 ft | 458 kts | 139° |
| 2026-04-28 23:58 | 59.12222 | -6.49688 | 37467 ft | 458 kts | 139° |
| 2026-04-28 23:58 | 59.07587 | -6.41177 | 37472 ft | 458 kts | 139° |
| 2026-04-28 23:59 | 59.02886 | -6.32579 | 37476 ft | 459 kts | 139° |
| 2026-04-28 23:59 | 58.98232 | -6.24099 | 37476 ft | 459 kts | 139° |
| 2026-04-29 00:00 | 58.93510 | -6.15530 | 37473 ft | 459 kts | 139° |
| 2026-04-29 00:00 | 58.88840 | -6.07089 | 37482 ft | 459 kts | 139° |
| 2026-04-29 00:01 | 58.84167 | -5.98673 | 37479 ft | 459 kts | 139° |
| 2026-04-29 00:01 | 58.79467 | -5.90243 | 37479 ft | 459 kts | 139° |
| 2026-04-29 00:02 | 58.74784 | -5.81875 | 37475 ft | 459 kts | 139° |
| 2026-04-29 00:02 | 58.70097 | -5.73534 | 37479 ft | 459 kts | 139° |
| 2026-04-29 00:03 | 58.65460 | -5.65309 | 37480 ft | 459 kts | 139° |
| 2026-04-29 00:03 | 58.60710 | -5.56920 | 37481 ft | 459 kts | 139° |
| 2026-04-29 00:04 | 58.56037 | -5.48698 | 37479 ft | 459 kts | 139° |
| 2026-04-29 00:04 | 58.51331 | -5.40449 | 37480 ft | 459 kts | 139° |
| 2026-04-29 00:05 | 58.46613 | -5.32209 | 37479 ft | 459 kts | 139° |
| 2026-04-29 00:05 | 58.41883 | -5.23980 | 37478 ft | 459 kts | 139° |
| 2026-04-29 00:06 | 58.37145 | -5.15769 | 37473 ft | 459 kts | 138° |
| 2026-04-29 00:06 | 58.32409 | -5.07592 | 37474 ft | 458 kts | 139° |
| 2026-04-29 00:07 | 58.27704 | -4.99499 | 37482 ft | 458 kts | 139° |
| 2026-04-29 00:07 | 58.22960 | -4.91368 | 37486 ft | 459 kts | 138° |
| 2026-04-29 00:08 | 58.18217 | -4.83273 | 37477 ft | 459 kts | 138° |
| 2026-04-29 00:08 | 58.13467 | -4.75190 | 37481 ft | 459 kts | 139° |
| 2026-04-29 00:09 | 58.08710 | -4.67121 | 37482 ft | 459 kts | 138° |
| 2026-04-29 00:09 | 58.03946 | -4.59070 | 37475 ft | 459 kts | 138° |
| 2026-04-29 00:10 | 57.99181 | -4.51047 | 37471 ft | 459 kts | 138° |
| 2026-04-29 00:10 | 57.94411 | -4.43045 | 37475 ft | 459 kts | 138° |
| 2026-04-29 00:11 | 57.89653 | -4.35057 | 37475 ft | 459 kts | 135° |
| 2026-04-29 00:12 | 57.82963 | -4.22206 | 37474 ft | 459 kts | 134° |
| 2026-04-29 00:12 | 57.78527 | -4.13797 | 37467 ft | 459 kts | 134° |
| 2026-04-29 00:13 | 57.74725 | -4.06618 | 37466 ft | 459 kts | 134° |
| 2026-04-29 00:13 | 57.70232 | -3.98162 | 37471 ft | 459 kts | 134° |
| 2026-04-29 00:14 | 57.65716 | -3.89695 | 37461 ft | 459 kts | 134° |
| 2026-04-29 00:14 | 57.61194 | -3.81248 | 37480 ft | 459 kts | 134° |
| 2026-04-29 00:15 | 57.56672 | -3.72832 | 37485 ft | 458 kts | 134° |
| 2026-04-29 00:15 | 57.52154 | -3.64455 | 37479 ft | 458 kts | 134° |
| 2026-04-29 00:16 | 57.47628 | -3.56094 | 37482 ft | 459 kts | 133° |
| 2026-04-29 00:16 | 57.43094 | -3.47750 | 37477 ft | 459 kts | 133° |
| 2026-04-29 00:17 | 57.38577 | -3.39467 | 37475 ft | 459 kts | 134° |
| 2026-04-29 00:17 | 57.34025 | -3.31152 | 37467 ft | 459 kts | 134° |
| 2026-04-29 00:18 | 57.29480 | -3.22879 | 37469 ft | 457 kts | 133° |
| 2026-04-29 00:18 | 57.24936 | -3.14639 | 37473 ft | 457 kts | 133° |
| 2026-04-29 00:19 | 57.20388 | -3.06421 | 37485 ft | 457 kts | 133° |
| 2026-04-29 00:19 | 57.15827 | -2.98209 | 37486 ft | 457 kts | 133° |
| 2026-04-29 00:20 | 57.11296 | -2.90080 | 37496 ft | 458 kts | 133° |
| 2026-04-29 00:20 | 57.06708 | -2.81878 | 37509 ft | 458 kts | 133° |
| 2026-04-29 00:21 | 57.02132 | -2.73730 | 37497 ft | 456 kts | 133° |
| 2026-04-29 00:21 | 56.97565 | -2.65627 | 37502 ft | 457 kts | 133° |
| 2026-04-29 00:22 | 56.93000 | -2.57555 | 37508 ft | 456 kts | 133° |
| 2026-04-29 00:22 | 56.88427 | -2.49498 | 37508 ft | 457 kts | 133° |
| 2026-04-29 00:23 | 56.83842 | -2.41448 | 37513 ft | 457 kts | 133° |
| 2026-04-29 00:23 | 56.79244 | -2.33406 | 37536 ft | 455 kts | 133° |
| 2026-04-29 00:24 | 56.74682 | -2.25454 | 37515 ft | 454 kts | 133° |
| 2026-04-29 00:24 | 56.70105 | -2.17505 | 37513 ft | 454 kts | 133° |
| 2026-04-29 00:25 | 56.65533 | -2.09592 | 37510 ft | 454 kts | 133° |
| 2026-04-29 00:25 | 56.60934 | -2.01660 | 37523 ft | 455 kts | 133° |
| 2026-04-29 00:26 | 56.56342 | -1.93769 | 37519 ft | 455 kts | 133° |
| 2026-04-29 00:26 | 56.51780 | -1.85955 | 37515 ft | 452 kts | 132° |
| 2026-04-29 00:27 | 56.47204 | -1.78147 | 37530 ft | 452 kts | 132° |
| 2026-04-29 00:27 | 56.42620 | -1.70350 | 37525 ft | 452 kts | 132° |
| 2026-04-29 00:28 | 56.38041 | -1.62590 | 37527 ft | 451 kts | 132° |
| 2026-04-29 00:28 | 56.33466 | -1.54863 | 37520 ft | 452 kts | 132° |
| 2026-04-29 00:29 | 56.28860 | -1.47111 | 37532 ft | 451 kts | 132° |
| 2026-04-29 00:29 | 56.24276 | -1.39422 | 37520 ft | 449 kts | 132° |
| 2026-04-29 00:30 | 56.19696 | -1.31766 | 37525 ft | 449 kts | 132° |
| 2026-04-29 00:30 | 56.15115 | -1.24136 | 37525 ft | 449 kts | 132° |
| 2026-04-29 00:31 | 56.10531 | -1.16526 | 37523 ft | 449 kts | 132° |
| 2026-04-29 00:31 | 56.05938 | -1.08926 | 37523 ft | 449 kts | 132° |
| 2026-04-29 00:32 | 56.01340 | -1.01343 | 37520 ft | 450 kts | 132° |
| 2026-04-29 00:32 | 55.96733 | -0.93773 | 37520 ft | 450 kts | 132° |
| 2026-04-29 00:33 | 55.92126 | -0.86228 | 37520 ft | 450 kts | 132° |
| 2026-04-29 00:33 | 55.87492 | -0.78663 | 37513 ft | 450 kts | 132° |
| 2026-04-29 00:34 | 55.82881 | -0.71162 | 37513 ft | 450 kts | 132° |
| 2026-04-29 00:34 | 55.78259 | -0.63661 | 37524 ft | 450 kts | 133° |
| 2026-04-29 00:35 | 55.73643 | -0.56195 | 37509 ft | 448 kts | 132° |
| 2026-04-29 00:35 | 55.69001 | -0.48713 | 37513 ft | 448 kts | 132° |
| 2026-04-29 00:36 | 55.64387 | -0.41298 | 37512 ft | 448 kts | 132° |
| 2026-04-29 00:36 | 55.59866 | -0.33760 | 37504 ft | 443 kts | 127° |
| 2026-04-29 00:37 | 55.55711 | -0.25708 | 37503 ft | 444 kts | 127° |
| 2026-04-29 00:37 | 55.51565 | -0.17615 | 37526 ft | 444 kts | 126° |
| 2026-04-29 00:38 | 55.47449 | -0.09602 | 37505 ft | 441 kts | 127° |
| 2026-04-29 00:38 | 55.43314 | -0.01574 | 37512 ft | 442 kts | 127° |
| 2026-04-29 00:39 | 55.39177 | 0.06430 | 37508 ft | 443 kts | 127° |
| 2026-04-29 00:39 | 55.35020 | 0.14446 | 37503 ft | 443 kts | 127° |
| 2026-04-29 00:40 | 55.30864 | 0.22433 | 37500 ft | 443 kts | 127° |
| 2026-04-29 00:40 | 55.26702 | 0.30405 | 37503 ft | 443 kts | 127° |
| 2026-04-29 00:41 | 55.22543 | 0.38346 | 37495 ft | 440 kts | 127° |
| 2026-04-29 00:41 | 55.18401 | 0.46226 | 37499 ft | 441 kts | 127° |
| 2026-04-29 00:42 | 55.14237 | 0.54122 | 37496 ft | 441 kts | 127° |
| 2026-04-29 00:42 | 55.10058 | 0.62021 | 37498 ft | 442 kts | 127° |
| 2026-04-29 00:43 | 55.05874 | 0.69904 | 37495 ft | 442 kts | 127° |
| 2026-04-29 00:43 | 55.01682 | 0.77775 | 37492 ft | 442 kts | 127° |
| 2026-04-29 00:44 | 54.97490 | 0.85620 | 37490 ft | 442 kts | 127° |
| 2026-04-29 00:44 | 54.93301 | 0.93434 | 37489 ft | 441 kts | 127° |
| 2026-04-29 00:45 | 54.89108 | 1.01231 | 37489 ft | 441 kts | 127° |
| 2026-04-29 00:45 | 54.84903 | 1.09022 | 37493 ft | 442 kts | 127° |
| 2026-04-29 00:46 | 54.80690 | 1.16805 | 37489 ft | 443 kts | 127° |
| 2026-04-29 00:46 | 54.76468 | 1.24578 | 37481 ft | 443 kts | 127° |
| 2026-04-29 00:47 | 54.72954 | 1.31028 | 37496 ft | 442 kts | 127° |
| 2026-04-29 00:47 | 54.68748 | 1.38726 | 37488 ft | 441 kts | 127° |
| 2026-04-29 00:48 | 54.64528 | 1.46423 | 37475 ft | 441 kts | 127° |
| 2026-04-29 00:48 | 54.60300 | 1.54113 | 37467 ft | 441 kts | 127° |
| 2026-04-29 00:49 | 54.56071 | 1.61778 | 37487 ft | 441 kts | 127° |
| 2026-04-29 00:49 | 54.51825 | 1.69449 | 37476 ft | 442 kts | 127° |
| 2026-04-29 00:50 | 54.47580 | 1.77092 | 37484 ft | 442 kts | 128° |
| 2026-04-29 00:50 | 54.43325 | 1.84732 | 37464 ft | 441 kts | 128° |
| 2026-04-29 00:51 | 54.39074 | 1.92337 | 37463 ft | 441 kts | 128° |
| 2026-04-29 00:51 | 54.34817 | 1.99931 | 37465 ft | 441 kts | 128° |
| 2026-04-29 00:52 | 54.30559 | 2.07501 | 37463 ft | 441 kts | 128° |
| 2026-04-29 00:52 | 54.26291 | 2.15067 | 37472 ft | 442 kts | 128° |
| 2026-04-29 00:53 | 54.22011 | 2.22627 | 37471 ft | 443 kts | 128° |
| 2026-04-29 00:53 | 54.17732 | 2.30162 | 37450 ft | 440 kts | 128° |
| 2026-04-29 00:54 | 54.13461 | 2.37662 | 37458 ft | 441 kts | 128° |
| 2026-04-29 00:54 | 54.09186 | 2.45143 | 37449 ft | 441 kts | 128° |
| 2026-04-29 00:55 | 54.04904 | 2.52612 | 37450 ft | 441 kts | 128° |
| 2026-04-29 00:55 | 54.00585 | 2.60123 | 37436 ft | 441 kts | 128° |
| 2026-04-29 00:56 | 53.96314 | 2.67528 | 37450 ft | 442 kts | 129° |
| 2026-04-29 00:56 | 53.92001 | 2.74981 | 37429 ft | 442 kts | 129° |
| 2026-04-29 00:57 | 53.87686 | 2.82414 | 37426 ft | 442 kts | 129° |
| 2026-04-29 00:57 | 53.83345 | 2.89873 | 37425 ft | 442 kts | 129° |
| 2026-04-29 00:58 | 53.79025 | 2.97276 | 37333 ft | 442 kts | 129° |
| 2026-04-29 00:58 | 53.76865 | 3.00968 | 36592 ft | 442 kts | 129° |
| 2026-04-29 00:58 | 53.74693 | 3.04670 | 35765 ft | 445 kts | 129° |
| 2026-04-29 00:58 | 53.72525 | 3.08359 | 35267 ft | 439 kts | 128° |
| 2026-04-29 00:59 | 53.70375 | 3.12028 | 34459 ft | 441 kts | 128° |
| 2026-04-29 00:59 | 53.68215 | 3.15700 | 33635 ft | 442 kts | 128° |
| 2026-04-29 00:59 | 53.65976 | 3.19327 | 32616 ft | 449 kts | 134° |
| 2026-04-29 00:59 | 53.63569 | 3.22703 | 31822 ft | 449 kts | 133° |
| 2026-04-29 01:00 | 53.61222 | 3.26045 | 31091 ft | 447 kts | 133° |
| 2026-04-29 01:00 | 53.58846 | 3.29461 | 30064 ft | 451 kts | 133° |
| 2026-04-29 01:00 | 53.56462 | 3.32898 | 29204 ft | 450 kts | 133° |
| 2026-04-29 01:00 | 53.54104 | 3.36299 | 28646 ft | 442 kts | 133° |
| 2026-04-29 01:01 | 53.51776 | 3.39652 | 28020 ft | 438 kts | 133° |
| 2026-04-29 01:01 | 53.49475 | 3.42964 | 27389 ft | 434 kts | 133° |
| 2026-04-29 01:01 | 53.47192 | 3.46243 | 26769 ft | 431 kts | 133° |
| 2026-04-29 01:01 | 53.44919 | 3.49505 | 26152 ft | 428 kts | 134° |
| 2026-04-29 01:02 | 53.42661 | 3.52735 | 25528 ft | 426 kts | 135° |
| 2026-04-29 01:02 | 53.40137 | 3.55395 | 24938 ft | 434 kts | 151° |
| 2026-04-29 01:02 | 53.37213 | 3.56822 | 24552 ft | 444 kts | 163° |
| 2026-04-29 01:02 | 53.34172 | 3.57818 | 24128 ft | 446 kts | 164° |
| 2026-04-29 01:03 | 53.31118 | 3.58773 | 23603 ft | 444 kts | 165° |
| 2026-04-29 01:03 | 53.28074 | 3.59692 | 23116 ft | 442 kts | 165° |
| 2026-04-29 01:03 | 53.25056 | 3.60580 | 22644 ft | 439 kts | 165° |
| 2026-04-29 01:03 | 53.22056 | 3.61454 | 22188 ft | 436 kts | 166° |
| 2026-04-29 01:04 | 53.19071 | 3.62320 | 21736 ft | 434 kts | 166° |
| 2026-04-29 01:04 | 53.16110 | 3.63179 | 21282 ft | 430 kts | 166° |
| 2026-04-29 01:04 | 53.13173 | 3.64028 | 20829 ft | 427 kts | 166° |
| 2026-04-29 01:04 | 53.10281 | 3.64864 | 20390 ft | 424 kts | 166° |
| 2026-04-29 01:05 | 53.07388 | 3.65699 | 19940 ft | 422 kts | 166° |
| 2026-04-29 01:05 | 53.04501 | 3.66531 | 19282 ft | 422 kts | 166° |
| 2026-04-29 01:05 | 53.01589 | 3.67369 | 18690 ft | 421 kts | 167° |
| 2026-04-29 01:05 | 52.98713 | 3.68196 | 18064 ft | 419 kts | 167° |
| 2026-04-29 01:06 | 52.95842 | 3.69020 | 17365 ft | 418 kts | 167° |
| 2026-04-29 01:06 | 52.92995 | 3.69879 | 16737 ft | 414 kts | 164° |
| 2026-04-29 01:06 | 52.90268 | 3.71493 | 15686 ft | 419 kts | 154° |
| 2026-04-29 01:06 | 52.87568 | 3.73377 | 15016 ft | 417 kts | 154° |
| 2026-04-29 01:07 | 52.84936 | 3.75176 | 14310 ft | 403 kts | 155° |
| 2026-04-29 01:07 | 52.82395 | 3.76889 | 13680 ft | 388 kts | 154° |
| 2026-04-29 01:07 | 52.79935 | 3.78542 | 13187 ft | 376 kts | 154° |
| 2026-04-29 01:07 | 52.77537 | 3.80150 | 12715 ft | 373 kts | 155° |
| 2026-04-29 01:08 | 52.75105 | 3.81773 | 12215 ft | 371 kts | 155° |
| 2026-04-29 01:08 | 52.72694 | 3.83377 | 11837 ft | 365 kts | 154° |
| 2026-04-29 01:08 | 52.70369 | 3.84927 | 11671 ft | 354 kts | 155° |
| 2026-04-29 01:08 | 52.68128 | 3.86417 | 11497 ft | 344 kts | 154° |
| 2026-04-29 01:09 | 52.65930 | 3.87879 | 11322 ft | 334 kts | 154° |
| 2026-04-29 01:09 | 52.63807 | 3.89289 | 11148 ft | 325 kts | 154° |
| 2026-04-29 01:09 | 52.61732 | 3.90666 | 10993 ft | 316 kts | 153° |
| 2026-04-29 01:09 | 52.59729 | 3.91994 | 10839 ft | 307 kts | 153° |
| 2026-04-29 01:10 | 52.57772 | 3.93287 | 10636 ft | 300 kts | 153° |
| 2026-04-29 01:10 | 52.55848 | 3.94559 | 10493 ft | 292 kts | 153° |
| 2026-04-29 01:10 | 52.54001 | 3.95780 | 10391 ft | 282 kts | 154° |
| 2026-04-29 01:10 | 52.52330 | 3.97294 | 10169 ft | 271 kts | 134° |
| 2026-04-29 01:11 | 52.51029 | 3.99459 | 9916 ft | 264 kts | 130° |
| 2026-04-29 01:11 | 52.49762 | 4.01610 | 9626 ft | 266 kts | 130° |
| 2026-04-29 01:11 | 52.48480 | 4.03796 | 9344 ft | 267 kts | 130° |
| 2026-04-29 01:11 | 52.47195 | 4.06001 | 9068 ft | 267 kts | 130° |
| 2026-04-29 01:12 | 52.45911 | 4.08207 | 8798 ft | 266 kts | 130° |
| 2026-04-29 01:12 | 52.44641 | 4.10392 | 8536 ft | 263 kts | 130° |
| 2026-04-29 01:12 | 52.43383 | 4.12556 | 8261 ft | 261 kts | 130° |
| 2026-04-29 01:12 | 52.42135 | 4.14700 | 7991 ft | 258 kts | 129° |
| 2026-04-29 01:13 | 52.40905 | 4.16814 | 7733 ft | 255 kts | 129° |
| 2026-04-29 01:13 | 52.39685 | 4.18908 | 7458 ft | 254 kts | 129° |
| 2026-04-29 01:13 | 52.38462 | 4.21005 | 7208 ft | 255 kts | 129° |
| 2026-04-29 01:13 | 52.37234 | 4.23108 | 6951 ft | 255 kts | 129° |
| 2026-04-29 01:14 | 52.35998 | 4.25224 | 6681 ft | 252 kts | 130° |
| 2026-04-29 01:14 | 52.34820 | 4.27240 | 6414 ft | 250 kts | 130° |
| 2026-04-29 01:14 | 52.33622 | 4.29288 | 6145 ft | 248 kts | 129° |
| 2026-04-29 01:14 | 52.32436 | 4.31313 | 5884 ft | 245 kts | 129° |
| 2026-04-29 01:15 | 52.31660 | 4.32637 | 5723 ft | 243 kts | 129° |
| 2026-04-29 01:15 | 52.30501 | 4.34616 | 5460 ft | 233 kts | 129° |
| 2026-04-29 01:15 | 52.29413 | 4.36465 | 5376 ft | 215 kts | 129° |
| 2026-04-29 01:15 | 52.28416 | 4.38163 | 5213 ft | 201 kts | 128° |
| 2026-04-29 01:16 | 52.27457 | 4.39796 | 5042 ft | 186 kts | 128° |
| 2026-04-29 01:16 | 52.26556 | 4.41324 | 4773 ft | 181 kts | 130° |
| 2026-04-29 01:16 | 52.25680 | 4.42416 | 4544 ft | 184 kts | 141° |
| 2026-04-29 01:16 | 52.24596 | 4.43536 | 4273 ft | 183 kts | 142° |
| 2026-04-29 01:17 | 52.23553 | 4.44609 | 3970 ft | 181 kts | 142° |
| 2026-04-29 01:17 | 52.22473 | 4.45736 | 3663 ft | 178 kts | 137° |
| 2026-04-29 01:17 | 52.21794 | 4.47263 | 3447 ft | 164 kts | 108° |
| 2026-04-29 01:17 | 52.21398 | 4.48969 | 3228 ft | 154 kts | 108° |
| 2026-04-29 01:18 | 52.21049 | 4.50538 | 3088 ft | 145 kts | 107° |
| 2026-04-29 01:18 | 52.21292 | 4.53611 | 2808 ft | 143 kts | 69° |
| 2026-04-29 01:18 | 52.21755 | 4.55056 | 2645 ft | 143 kts | 66° |
| 2026-04-29 01:19 | 52.22258 | 4.56438 | 2474 ft | 141 kts | 63° |
| 2026-04-29 01:19 | 52.22776 | 4.57787 | 2272 ft | 139 kts | 64° |
| 2026-04-29 01:19 | 52.23291 | 4.59138 | 2097 ft | 138 kts | 64° |
| 2026-04-29 01:19 | 52.23798 | 4.60460 | 1899 ft | 137 kts | 64° |
| 2026-04-29 01:20 | 52.24309 | 4.61787 | 1724 ft | 137 kts | 63° |
| 2026-04-29 01:20 | 52.24806 | 4.63074 | 1543 ft | 137 kts | 64° |
| 2026-04-29 01:20 | 52.25400 | 4.64617 | 1325 ft | 128 kts | 62° |
| 2026-04-29 01:20 | 52.25792 | 4.65634 | 1188 ft | 123 kts | 63° |
| 2026-04-29 01:21 | 52.26242 | 4.66762 | 1014 ft | 119 kts | 63° |
| 2026-04-29 01:21 | 52.26712 | 4.67916 | 786 ft | 123 kts | 60° |
| 2026-04-29 01:21 | 52.27210 | 4.69222 | 577 ft | 129 kts | 61° |
| 2026-04-29 01:21 | 52.27701 | 4.70552 | 436 ft | 136 kts | 62° |
| 2026-04-29 01:22 | 52.28215 | 4.71896 | 335 ft | 132 kts | 60° |
| 2026-04-29 01:22 | 52.28545 | 4.72733 | 161 ft | 129 kts | 61° |
| 2026-04-29 01:22 | 52.28637 | 4.72968 | 128 ft | 129 kts | 61° |
| 2026-04-29 01:22 | 52.29001 | 4.73947 | 27 ft | 117 kts | 63° |
| 2026-04-29 01:23 | 52.29396 | 4.74989 | 1 ft | 78 kts | 58° |
| 2026-04-29 01:23 | 52.29494 | 4.75244 | 0 ft | 48 kts | 58° |
| 2026-04-29 01:23 | 52.29640 | 4.75629 | 1 ft | 39 kts | 59° |
| 2026-04-29 01:23 | 52.29776 | 4.75981 | -1 ft | 34 kts | 57° |
| 2026-04-29 01:24 | 52.29880 | 4.76253 | -1 ft | 24 kts | 58° |
| 2026-04-29 01:24 | 52.29977 | 4.76465 | 0 ft | 21 kts | 45° |
| 2026-04-29 01:24 | 52.30093 | 4.76596 | 1 ft | 21 kts | 26° |
| 2026-04-29 01:24 | 52.30180 | 4.76668 | 1 ft | 7 kts | 28° |
| 2026-04-29 01:25 | 52.30229 | 4.76711 | 1 ft | 0 kts | 28° |
| 2026-04-29 01:27 | 52.30230 | 4.76711 | 1 ft | 1 kts | 28° |
| 2026-04-29 01:27 | 52.30245 | 4.76724 | 1 ft | 4 kts | 28° |
| 2026-04-29 01:27 | 52.30281 | 4.76744 | 1 ft | 6 kts | 7° |
| 2026-04-29 01:27 | 52.30325 | 4.76728 | 1 ft | 7 kts | 339° |
| 2026-04-29 01:28 | 52.30379 | 4.76747 | 1 ft | 9 kts | 44° |
| 2026-04-29 01:28 | 52.30402 | 4.76797 | 1 ft | 6 kts | 55° |
| 2026-04-29 01:28 | 52.30424 | 4.76817 | 1 ft | 3 kts | 353° |
| 2026-04-29 01:28 | 52.30449 | 4.76800 | 1 ft | 5 kts | 323° |
| 2026-04-29 01:29 | 52.30456 | 4.76791 | 1 ft | 2 kts | 322° |
| 2026-04-29 01:29 | 52.30463 | 4.76783 | 1 ft | 1 kts | 323° |
| 2026-04-29 01:29 | 52.30466 | 4.76779 | 1 ft | 0 kts | 323° |
| 2026-04-29 01:29 | 52.30467 | 4.76777 | 1 ft | 0 kts | 323° |